Time;durP1;ratioP1;P1;durP2;ratioP2;P2;SDS_P1;SDS_P2;PMS_P1;PMS_P2;Temp;Humidity;BMP_temperature;BMP_pressure;BME280_temperature;BME280_humidity;BME280_pressure;Samples;Min_cycle;Max_cycle;Signal;HPM_P1;HPM_P2
2021/06/19 00:02:17;;;;;;;6.35;3.25;;;24.40;99.90;;;;;;5064825;28;20097;-49
2021/06/19 00:04:44;;;;;;;6.07;2.58;;;24.40;99.90;;;;;;5065196;28;20103;-50
2021/06/19 00:07:09;;;;;;;4.55;2.50;;;24.30;99.90;;;;;;5064582;28;20055;-51
2021/06/19 00:09:37;;;;;;;7.35;3.10;;;24.20;99.90;;;;;;5064385;28;20060;-46
2021/06/19 00:12:03;;;;;;;6.93;3.17;;;24.30;99.90;;;;;;5064621;28;20096;-49
2021/06/19 00:14:30;;;;;;;7.40;3.45;;;24.20;99.90;;;;;;5064970;28;20522;-48
2021/06/19 00:16:56;;;;;;;5.88;3.20;;;24.20;99.90;;;;;;5064831;28;20029;-49
2021/06/19 00:19:22;;;;;;;5.68;2.83;;;24.20;99.90;;;;;;5064614;28;20214;-48
2021/06/19 00:21:47;;;;;;;6.00;2.80;;;24.20;99.90;;;;;;5064835;28;20020;-50
2021/06/19 00:24:22;;;;;;;4.38;2.70;;;24.20;99.90;;;;;;5064690;28;20035;-49
2021/06/19 00:26:51;;;;;;;6.25;3.08;;;24.10;99.90;;;;;;5063456;28;20470;-47
2021/06/19 00:29:18;;;;;;;5.80;3.35;;;24.20;99.90;;;;;;5065112;28;20106;-49
2021/06/19 00:31:44;;;;;;;6.00;2.95;;;24.10;99.90;;;;;;5064407;28;20493;-49
2021/06/19 00:34:12;;;;;;;5.22;2.58;;;24.20;99.90;;;;;;5064575;28;20113;-49
2021/06/19 00:36:38;;;;;;;7.93;3.40;;;24.20;99.90;;;;;;5063889;28;20028;-48
2021/06/19 00:39:05;;;;;;;10.88;3.53;;;24.00;99.90;;;;;;5064798;28;20074;-50
2021/06/19 00:41:34;;;;;;;6.63;3.15;;;24.10;99.90;;;;;;5064659;28;20043;-48
2021/06/19 00:44:04;;;;;;;7.03;3.03;;;24.00;99.90;;;;;;5065429;28;20034;-49
2021/06/19 00:46:30;;;;;;;6.22;2.70;;;24.00;99.90;;;;;;5064173;28;20027;-47
2021/06/19 00:48:55;;;;;;;5.20;2.58;;;24.10;99.90;;;;;;5064898;28;20111;-47
2021/06/19 00:51:21;;;;;;;5.15;2.55;;;24.00;99.90;;;;;;5064791;28;20052;-46
2021/06/19 00:53:46;;;;;;;8.48;2.85;;;24.10;99.90;;;;;;5064695;28;20079;-50
2021/06/19 00:56:14;;;;;;;6.63;3.65;;;24.00;99.90;;;;;;5064873;28;20108;-50
2021/06/19 00:58:41;;;;;;;6.70;2.97;;;23.90;99.90;;;;;;5064449;28;20029;-49
2021/06/19 01:01:07;;;;;;;6.30;3.17;;;23.90;99.90;;;;;;5065028;28;20032;-49
2021/06/19 01:03:33;;;;;;;6.07;3.10;;;23.90;99.90;;;;;;5064394;28;20028;-45
2021/06/19 01:06:00;;;;;;;11.95;3.55;;;24.00;99.90;;;;;;5064655;28;20097;-48
2021/06/19 01:08:26;;;;;;;9.07;3.50;;;23.90;99.90;;;;;;5064805;28;20025;-47
2021/06/19 01:10:54;;;;;;;10.60;3.17;;;23.80;99.90;;;;;;5064504;28;20021;-45
2021/06/19 01:13:21;;;;;;;8.07;3.78;;;23.90;99.90;;;;;;5065262;28;20021;-50
2021/06/19 01:15:48;;;;;;;12.35;3.55;;;23.80;99.90;;;;;;5065054;28;20037;-47
2021/06/19 01:18:13;;;;;;;10.98;3.83;;;23.70;99.90;;;;;;5064680;28;20032;-49
2021/06/19 01:20:40;;;;;;;9.48;4.18;;;23.70;99.90;;;;;;5063568;28;20028;-49
2021/06/19 01:23:06;;;;;;;9.15;3.80;;;23.70;99.90;;;;;;5063352;28;20028;-47
2021/06/19 01:25:33;;;;;;;8.13;3.63;;;23.60;99.90;;;;;;5064643;28;20031;-48
2021/06/19 01:28:00;;;;;;;8.65;3.65;;;23.60;99.90;;;;;;5064633;28;20020;-46
2021/06/19 01:30:28;;;;;;;7.70;3.90;;;23.50;99.90;;;;;;5064255;28;20017;-46
2021/06/19 01:32:55;;;;;;;11.90;3.80;;;23.40;99.90;;;;;;5064128;28;20045;-47
2021/06/19 01:35:22;;;;;;;10.60;4.47;;;23.40;99.90;;;;;;5064106;28;20048;-46
2021/06/19 01:37:52;;;;;;;6.63;3.92;;;23.40;99.90;;;;;;5084464;28;20024;-45
2021/06/19 01:40:24;;;;;;;6.47;4.05;;;23.40;99.90;;;;;;5070179;28;20060;-46
2021/06/19 01:42:51;;;;;;;10.00;3.13;;;23.20;99.90;;;;;;5070016;28;20024;-47
2021/06/19 01:45:26;;;;;;;6.43;3.05;;;23.30;99.90;;;;;;5070371;28;20056;-48
2021/06/19 01:47:53;;;;;;;5.90;3.40;;;23.30;99.90;;;;;;5069326;28;20120;-47
2021/06/19 01:50:22;;;;;;;5.00;2.70;;;23.40;99.90;;;;;;5074363;28;20495;-50
2021/06/19 01:52:49;;;;;;;6.97;2.80;;;23.30;99.90;;;;;;5089498;28;20031;-46
2021/06/19 01:55:15;;;;;;;3.38;1.88;;;23.40;99.90;;;;;;5089338;28;20051;-46
2021/06/19 01:57:41;;;;;;;4.30;2.20;;;23.40;99.90;;;;;;5087248;28;20535;-49
2021/06/19 02:00:10;;;;;;;3.78;2.30;;;23.50;99.90;;;;;;5089353;28;20035;-47
2021/06/19 02:02:38;;;;;;;2.17;1.65;;;23.60;99.90;;;;;;5089044;28;20082;-48
2021/06/19 02:05:04;;;;;;;2.30;1.50;;;23.60;99.90;;;;;;5071639;28;20081;-50
2021/06/19 02:07:31;;;;;;;2.10;1.40;;;23.60;99.90;;;;;;5068584;28;20025;-50
2021/06/19 02:09:57;;;;;;;2.20;1.52;;;23.60;99.90;;;;;;5069064;28;20112;-50
2021/06/19 02:12:23;;;;;;;1.92;1.30;;;23.60;99.90;;;;;;5069045;28;20099;-48
2021/06/19 02:14:48;;;;;;;1.58;1.10;;;23.60;99.90;;;;;;5069288;28;20028;-50
2021/06/19 02:17:14;;;;;;;1.50;1.30;;;23.70;99.90;;;;;;5069011;28;20039;-48
2021/06/19 02:19:40;;;;;;;3.40;1.40;;;23.80;99.90;;;;;;5068437;28;20032;-50
2021/06/19 02:22:05;;;;;;;2.70;1.67;;;23.60;99.90;;;;;;5068527;28;20067;-49
2021/06/19 02:24:31;;;;;;;1.70;1.52;;;23.60;99.90;;;;;;5068358;28;20040;-47
2021/06/19 02:27:07;;;;;;;2.28;1.35;;;23.60;99.90;;;;;;5068700;28;20064;-47
2021/06/19 02:29:33;;;;;;;1.35;1.20;;;23.70;99.90;;;;;;5067233;28;20020;-48
2021/06/19 02:31:59;;;;;;;1.33;1.13;;;24.00;99.90;;;;;;5068289;28;20024;-49
2021/06/19 02:34:24;;;;;;;1.30;1.08;;;24.10;99.90;;;;;;5068478;28;20028;-50
2021/06/19 02:36:50;;;;;;;1.05;0.95;;;24.10;99.90;;;;;;5068740;28;20482;-49
2021/06/19 02:39:15;;;;;;;1.25;1.00;;;24.10;99.90;;;;;;5068730;28;20839;-48
2021/06/19 02:41:41;;;;;;;1.77;1.10;;;24.10;99.90;;;;;;5068299;28;20509;-49
2021/06/19 02:44:07;;;;;;;1.00;1.00;;;24.10;99.90;;;;;;5068301;28;20037;-47
2021/06/19 02:46:33;;;;;;;1.20;0.98;;;24.20;99.90;;;;;;5068298;28;20021;-47
2021/06/19 02:48:58;;;;;;;0.90;0.90;;;24.20;99.90;;;;;;5072595;28;20038;-47
2021/06/19 02:51:24;;;;;;;1.20;1.02;;;24.20;99.90;;;;;;5088256;28;20118;-48
2021/06/19 02:53:50;;;;;;;2.40;1.30;;;24.10;99.90;;;;;;5088507;28;20035;-48
2021/06/19 02:56:15;;;;;;;2.45;1.10;;;24.10;99.90;;;;;;5088269;28;20024;-47
2021/06/19 02:58:41;;;;;;;2.67;1.45;;;24.10;99.90;;;;;;5086831;28;20462;-49
2021/06/19 03:01:08;;;;;;;2.90;1.40;;;24.00;99.90;;;;;;5088250;28;20502;-48
2021/06/19 03:03:34;;;;;;;1.73;1.40;;;24.00;99.90;;;;;;5087766;28;20032;-45
2021/06/19 03:06:01;;;;;;;1.90;1.15;;;23.90;99.90;;;;;;5087976;28;20035;-49
2021/06/19 03:08:30;;;;;;;2.13;1.27;;;24.00;99.90;;;;;;5087946;28;20081;-46
2021/06/19 03:10:56;;;;;;;2.45;1.10;;;24.00;99.90;;;;;;5087955;28;20023;-50
2021/06/19 03:13:21;;;;;;;1.30;1.00;;;24.10;99.90;;;;;;5087867;28;20038;-50
2021/06/19 03:15:47;;;;;;;2.17;1.42;;;24.20;99.90;;;;;;5088521;28;20647;-48
2021/06/19 03:18:13;;;;;;;2.92;1.23;;;24.30;99.90;;;;;;5072971;28;20040;-48
2021/06/19 03:20:39;;;;;;;1.92;1.30;;;24.40;99.90;;;;;;5067065;28;20036;-48
2021/06/19 03:23:06;;;;;;;2.05;1.00;;;24.30;99.90;;;;;;5067501;28;20391;-47
2021/06/19 03:25:41;;;;;;;1.35;1.10;;;24.30;99.90;;;;;;5066843;28;20086;-50
2021/06/19 03:28:08;;;;;;;3.13;1.05;;;24.40;99.90;;;;;;5067294;28;20052;-46
2021/06/19 03:30:37;;;;;;;1.10;1.00;;;24.20;99.90;;;;;;5067099;28;20032;-50
2021/06/19 03:33:04;;;;;;;2.25;1.40;;;24.30;99.90;;;;;;5065861;28;20027;-49
2021/06/19 03:35:31;;;;;;;1.35;1.10;;;24.30;99.90;;;;;;5066809;28;20043;-50
2021/06/19 03:37:57;;;;;;;1.75;1.08;;;24.40;99.90;;;;;;5067464;28;20036;-46
2021/06/19 03:40:25;;;;;;;1.20;1.10;;;24.40;99.90;;;;;;5067003;28;20445;-47
2021/06/19 03:42:51;;;;;;;1.38;0.90;;;24.50;99.90;;;;;;5067658;28;20017;-49
2021/06/19 03:45:19;;;;;;;1.35;1.23;;;24.50;99.90;;;;;;5067790;28;20020;-49
2021/06/19 03:47:45;;;;;;;1.38;0.90;;;24.40;99.90;;;;;;5066647;28;20040;-50
2021/06/19 03:50:18;;;;;;;1.33;1.23;;;24.20;99.90;;;;;;5066892;28;20033;-50
2021/06/19 03:52:44;;;;;;;1.48;1.27;;;24.20;99.90;;;;;;5066502;28;20082;-50
2021/06/19 03:55:10;;;;;;;1.25;1.15;;;24.10;99.90;;;;;;5066962;28;20430;-50
2021/06/19 03:57:37;;;;;;;1.40;1.23;;;24.00;99.90;;;;;;5066659;28;20040;-48
2021/06/19 04:00:06;;;;;;;1.98;1.15;;;24.00;99.90;;;;;;5066474;28;20483;-50
2021/06/19 04:02:32;;;;;;;1.40;1.20;;;24.10;99.90;;;;;;5066365;28;20024;-48
2021/06/19 04:04:58;;;;;;;1.83;1.25;;;24.10;99.90;;;;;;5066881;28;20016;-50
2021/06/19 04:07:23;;;;;;;1.33;1.10;;;24.10;99.90;;;;;;5066802;28;20033;-49
2021/06/19 04:09:52;;;;;;;1.85;1.10;;;24.10;99.90;;;;;;5067120;28;20529;-48
2021/06/19 04:12:21;;;;;;;1.08;0.93;;;24.10;99.90;;;;;;5067441;28;20649;-49
2021/06/19 04:14:48;;;;;;;1.10;1.00;;;24.00;99.90;;;;;;5067207;28;20415;-49
2021/06/19 04:17:13;;;;;;;1.73;1.10;;;24.10;99.90;;;;;;5066705;28;20398;-49
2021/06/19 04:19:40;;;;;;;0.85;0.85;;;24.10;99.90;;;;;;5066093;28;20036;-50
2021/06/19 04:22:11;;;;;;;1.88;1.23;;;24.10;99.90;;;;;;5066704;28;20130;-48
2021/06/19 04:24:37;;;;;;;2.00;1.25;;;24.10;99.90;;;;;;5066266;28;20069;-46
2021/06/19 04:27:04;;;;;;;2.08;1.45;;;24.10;99.90;;;;;;5065430;28;20027;-50
2021/06/19 04:29:31;;;;;;;1.80;1.10;;;24.10;99.90;;;;;;5065037;28;20675;-49
2021/06/19 04:31:59;;;;;;;2.28;1.27;;;24.10;99.90;;;;;;5066644;28;20032;-48
2021/06/19 04:34:24;;;;;;;1.65;1.35;;;24.10;99.90;;;;;;5066246;28;20124;-49
2021/06/19 04:36:51;;;;;;;1.40;1.02;;;24.00;99.90;;;;;;5066992;28;20111;-47
2021/06/19 04:39:17;;;;;;;1.55;1.13;;;24.10;99.90;;;;;;5066820;28;20032;-48
2021/06/19 04:46:47;;;;;;;1.48;1.20;;;24.10;99.90;;;;;;5066730;28;20071;-48
2021/06/19 04:49:14;;;;;;;2.05;1.10;;;24.10;99.90;;;;;;5066249;28;20084;-50
2021/06/19 04:51:40;;;;;;;1.77;1.10;;;24.10;99.90;;;;;;5065669;28;20013;-50
2021/06/19 04:54:06;;;;;;;1.67;1.38;;;24.10;99.90;;;;;;5066373;28;20048;-50
2021/06/19 04:56:33;;;;;;;1.75;1.30;;;24.10;99.90;;;;;;5066057;28;20774;-46
2021/06/19 04:59:02;;;;;;;2.03;1.42;;;24.10;99.90;;;;;;5075529;28;20036;-48
2021/06/19 05:01:28;;;;;;;2.05;1.33;;;24.20;99.90;;;;;;5079939;28;20104;-49
2021/06/19 05:03:54;;;;;;;2.75;1.30;;;24.10;99.90;;;;;;5066225;28;20029;-48
2021/06/19 05:06:19;;;;;;;2.08;1.73;;;24.20;99.90;;;;;;5066840;28;20142;-50
2021/06/19 05:08:45;;;;;;;2.03;1.10;;;24.10;99.90;;;;;;5064336;28;20947;-50
2021/06/19 05:11:11;;;;;;;1.20;1.10;;;24.00;99.90;;;;;;5066937;28;20032;-48
2021/06/19 05:13:37;;;;;;;1.80;1.40;;;24.00;99.90;;;;;;5069442;28;20024;-50
2021/06/19 05:16:03;;;;;;;2.75;1.42;;;24.10;99.90;;;;;;5069551;28;20047;-48
2021/06/19 05:18:28;;;;;;;1.83;1.13;;;24.10;99.90;;;;;;5069960;28;20036;-50
2021/06/19 05:20:55;;;;;;;1.98;1.20;;;24.10;99.90;;;;;;5069531;28;20170;-48
2021/06/19 05:23:21;;;;;;;1.75;1.30;;;23.90;99.90;;;;;;5069698;28;20052;-48
2021/06/19 05:25:47;;;;;;;1.80;1.60;;;23.90;99.90;;;;;;5070035;28;20122;-49
2021/06/19 05:28:13;;;;;;;2.72;1.40;;;23.90;99.90;;;;;;5089301;28;20043;-48
2021/06/19 05:30:39;;;;;;;2.42;1.60;;;24.00;99.90;;;;;;5089556;28;20398;-50
2021/06/19 05:33:06;;;;;;;3.22;1.45;;;24.00;99.90;;;;;;5089359;28;20027;-49
2021/06/19 05:35:32;;;;;;;2.60;1.38;;;24.00;99.90;;;;;;5089392;28;20055;-49
2021/06/19 05:37:57;;;;;;;1.83;1.40;;;24.00;99.90;;;;;;5089717;28;20024;-46
2021/06/19 05:40:23;;;;;;;5.38;1.50;;;23.90;99.90;;;;;;5089850;28;20413;-47
2021/06/19 05:42:51;;;;;;;2.65;1.20;;;24.00;99.90;;;;;;5088634;28;20474;-47
2021/06/19 05:45:17;;;;;;;1.13;1.02;;;24.10;99.90;;;;;;5089628;28;20411;-46
2021/06/19 05:47:42;;;;;;;1.83;1.20;;;24.10;99.90;;;;;;5089147;28;20032;-47
2021/06/19 05:50:09;;;;;;;2.75;1.27;;;24.00;99.90;;;;;;5074413;28;20109;-50
2021/06/19 05:52:34;;;;;;;0.98;0.95;;;24.00;99.90;;;;;;5067803;28;20058;-50
2021/06/19 05:55:00;;;;;;;2.60;1.20;;;24.10;99.90;;;;;;5069071;28;20033;-50
2021/06/19 05:57:26;;;;;;;1.42;1.00;;;24.00;99.90;;;;;;5069585;28;20551;-48
2021/06/19 05:59:52;;;;;;;1.20;1.10;;;24.10;99.90;;;;;;5068726;28;20039;-47
2021/06/19 06:02:17;;;;;;;1.52;1.08;;;24.10;99.90;;;;;;5071091;28;20043;-50
2021/06/19 06:04:44;;;;;;;1.05;1.05;;;24.20;99.90;;;;;;5068198;28;20043;-48
2021/06/19 06:07:10;;;;;;;2.20;1.10;;;24.30;99.90;;;;;;5068459;28;20051;-47
2021/06/19 06:09:38;;;;;;;1.30;1.20;;;24.30;99.90;;;;;;5068624;28;20021;-50
2021/06/19 06:12:05;;;;;;;4.97;1.90;;;24.10;99.90;;;;;;5068917;28;20522;-48
2021/06/19 06:14:30;;;;;;;1.85;1.20;;;24.00;99.90;;;;;;5068659;28;20028;-50
2021/06/19 06:16:56;;;;;;;2.25;1.40;;;24.00;99.90;;;;;;5069405;28;20043;-47
2021/06/19 06:19:23;;;;;;;1.17;1.08;;;24.10;99.90;;;;;;5069070;28;20498;-49
2021/06/19 06:21:49;;;;;;;3.08;1.33;;;24.10;99.90;;;;;;5068290;28;20056;-47
2021/06/19 06:24:15;;;;;;;1.73;1.17;;;24.10;99.90;;;;;;5069079;28;20028;-49
2021/06/19 06:26:41;;;;;;;1.65;1.08;;;24.20;99.90;;;;;;5088547;28;20024;-48
2021/06/19 06:29:07;;;;;;;2.75;1.10;;;24.30;99.90;;;;;;5088557;28;20064;-51
2021/06/19 06:31:34;;;;;;;4.03;2.03;;;24.30;99.90;;;;;;5088625;28;20024;-50
2021/06/19 06:34:00;;;;;;;1.92;1.50;;;24.10;99.90;;;;;;5089442;28;20420;-50
2021/06/19 06:36:26;;;;;;;3.20;1.55;;;24.10;99.90;;;;;;5089166;28;20063;-50
2021/06/19 06:38:51;;;;;;;2.55;1.35;;;24.10;99.90;;;;;;5073598;28;20040;-51
2021/06/19 06:41:17;;;;;;;1.80;1.30;;;24.20;99.90;;;;;;5068331;28;20509;-51
2021/06/19 06:43:43;;;;;;;2.00;1.45;;;24.00;99.90;;;;;;5067382;28;20024;-51
2021/06/19 06:46:08;;;;;;;1.88;1.40;;;24.00;99.90;;;;;;5066502;28;20039;-50
2021/06/19 06:48:34;;;;;;;1.40;1.30;;;24.10;99.90;;;;;;5067829;28;20515;-48
2021/06/19 06:51:00;;;;;;;3.22;1.40;;;24.30;99.90;;;;;;5068162;28;20056;-48
2021/06/19 06:53:27;;;;;;;1.58;1.42;;;24.20;99.90;;;;;;5067978;28;20490;-50
2021/06/19 06:55:52;;;;;;;1.35;1.10;;;24.30;99.90;;;;;;5068208;28;20024;-49
2021/06/19 06:58:18;;;;;;;1.23;1.00;;;24.30;99.90;;;;;;5067915;28;20039;-50
2021/06/19 07:00:44;;;;;;;1.17;1.08;;;24.50;99.90;;;;;;5084354;28;20028;-48
2021/06/19 07:03:09;;;;;;;1.48;1.33;;;24.40;99.90;;;;;;5072838;28;20029;-49
2021/06/19 07:05:35;;;;;;;2.42;1.48;;;24.60;99.90;;;;;;5081540;28;20099;-47
2021/06/19 07:08:01;;;;;;;1.70;1.10;;;24.50;99.90;;;;;;5077445;28;20098;-49
2021/06/19 07:10:26;;;;;;;1.10;1.00;;;24.70;99.90;;;;;;5077396;28;20028;-47
2021/06/19 07:12:52;;;;;;;1.02;1.00;;;24.60;99.90;;;;;;5067482;28;20032;-49
2021/06/19 07:15:19;;;;;;;1.58;1.30;;;24.60;99.90;;;;;;5069058;28;20112;-48
2021/06/19 07:17:47;;;;;;;2.67;1.30;;;24.60;99.90;;;;;;5079258;28;20107;-47
2021/06/19 07:20:13;;;;;;;2.05;1.65;;;24.60;99.90;;;;;;5089111;28;20032;-46
2021/06/19 07:22:40;;;;;;;2.60;1.17;;;24.60;99.90;;;;;;5068897;28;20035;-48
2021/06/19 07:25:07;;;;;;;2.50;1.20;;;24.60;99.90;;;;;;5086469;28;20028;-46
2021/06/19 07:27:33;;;;;;;1.88;1.10;;;24.60;99.90;;;;;;5072684;28;20489;-45
2021/06/19 07:30:00;;;;;;;1.02;1.00;;;24.60;99.90;;;;;;5065268;28;20024;-46
2021/06/19 07:32:25;;;;;;;2.85;1.15;;;24.70;99.90;;;;;;5070579;28;20032;-45
2021/06/19 07:34:51;;;;;;;1.75;0.90;;;24.80;99.90;;;;;;5069612;28;20024;-45
2021/06/19 07:37:17;;;;;;;2.03;1.10;;;25.00;99.90;;;;;;5068372;28;20028;-48
2021/06/19 07:39:43;;;;;;;1.80;1.20;;;25.00;99.90;;;;;;5068000;28;20021;-48
2021/06/19 07:42:09;;;;;;;1.50;1.10;;;25.10;99.90;;;;;;5065957;28;20487;-48
2021/06/19 07:44:36;;;;;;;1.58;1.08;;;25.10;99.90;;;;;;5065405;28;20028;-45
2021/06/19 07:47:03;;;;;;;1.98;1.20;;;25.00;99.90;;;;;;5066368;28;20024;-49
2021/06/19 07:49:29;;;;;;;1.27;0.95;;;25.00;99.90;;;;;;5065453;28;20159;-50
2021/06/19 07:51:55;;;;;;;1.77;1.20;;;25.10;99.90;;;;;;5077678;28;20107;-45
2021/06/19 07:54:21;;;;;;;5.63;2.55;;;25.10;99.90;;;;;;5086450;28;20182;-48
2021/06/19 07:56:49;;;;;;;3.63;1.90;;;25.00;99.90;;;;;;5086301;28;20032;-44
2021/06/19 07:59:15;;;;;;;3.55;1.63;;;25.10;99.90;;;;;;5086488;28;20034;-47
2021/06/19 08:01:41;;;;;;;1.92;1.40;;;25.10;99.90;;;;;;5086460;28;20111;-46
2021/06/19 08:04:06;;;;;;;4.30;2.33;;;25.30;99.90;;;;;;5086397;28;20035;-48
2021/06/19 08:06:33;;;;;;;5.10;2.53;;;25.20;99.90;;;;;;5085353;28;20028;-47
2021/06/19 08:08:59;;;;;;;5.80;3.00;;;25.00;99.90;;;;;;5074581;28;20029;-49
2021/06/19 08:11:26;;;;;;;4.65;2.88;;;24.90;99.90;;;;;;5066374;28;20036;-49
2021/06/19 08:13:53;;;;;;;6.50;3.10;;;25.00;99.90;;;;;;5068810;28;20111;-48
2021/06/19 08:16:20;;;;;;;4.03;2.50;;;25.00;99.90;;;;;;5066493;28;20020;-49
2021/06/19 08:18:46;;;;;;;3.58;2.58;;;25.10;99.90;;;;;;5065949;28;20040;-50
2021/06/19 08:21:13;;;;;;;6.80;3.50;;;25.00;99.90;;;;;;5065771;28;20043;-50
2021/06/19 08:23:39;;;;;;;5.50;3.20;;;25.00;99.90;;;;;;5063727;28;20112;-47
2021/06/19 08:26:05;;;;;;;4.80;3.40;;;24.90;99.90;;;;;;5064305;28;20033;-49
2021/06/19 08:28:33;;;;;;;4.60;2.95;;;24.90;99.90;;;;;;5064805;28;20078;-47
2021/06/19 08:30:59;;;;;;;6.13;2.97;;;25.00;99.90;;;;;;5067008;28;20348;-48
2021/06/19 08:33:24;;;;;;;4.30;2.72;;;25.10;99.90;;;;;;5082484;28;20032;-45
2021/06/19 08:35:51;;;;;;;4.10;3.00;;;25.10;99.90;;;;;;5084999;28;20058;-46
2021/06/19 08:38:18;;;;;;;3.55;2.50;;;25.00;99.90;;;;;;5085224;28;20421;-49
2021/06/19 08:40:43;;;;;;;3.72;2.80;;;25.00;99.90;;;;;;5085308;28;20032;-47
2021/06/19 08:43:09;;;;;;;6.60;3.17;;;25.10;99.90;;;;;;5085512;28;20493;-46
2021/06/19 08:45:36;;;;;;;4.75;2.75;;;25.10;99.90;;;;;;5084718;28;20024;-46
2021/06/19 08:48:03;;;;;;;4.53;3.38;;;25.20;99.90;;;;;;5088871;28;20028;-46
2021/06/19 08:50:30;;;;;;;7.35;2.97;;;25.10;99.90;;;;;;5088857;28;20035;-48
2021/06/19 08:52:59;;;;;;;3.88;2.88;;;25.00;99.90;;;;;;5088588;28;20020;-47
2021/06/19 08:55:25;;;;;;;3.60;2.42;;;25.10;99.90;;;;;;5089209;28;20038;-47
2021/06/19 08:57:52;;;;;;;3.75;2.25;;;25.20;99.90;;;;;;5088979;28;20024;-45
2021/06/19 09:00:19;;;;;;;3.97;2.20;;;25.40;99.90;;;;;;5088975;28;20409;-50
2021/06/19 09:02:47;;;;;;;4.78;2.10;;;25.40;99.90;;;;;;5088694;28;20116;-49
2021/06/19 09:05:15;;;;;;;3.22;2.65;;;25.50;99.90;;;;;;5087769;28;20017;-49
2021/06/19 09:07:44;;;;;;;3.03;2.00;;;25.40;99.90;;;;;;5088951;28;20486;-49
2021/06/19 09:10:21;;;;;;;4.53;2.30;;;25.30;99.90;;;;;;5087569;28;20024;-50
2021/06/19 09:12:54;;;;;;;3.85;2.40;;;25.30;99.90;;;;;;5088793;28;20397;-50
2021/06/19 09:15:19;;;;;;;2.78;1.90;;;25.40;99.90;;;;;;5088388;28;20032;-49
2021/06/19 09:18:09;;;;;;;1.38;1.27;;;25.50;99.90;;;;;;5088638;28;20095;-47
2021/06/19 09:20:59;;;;;;;3.70;2.00;;;25.70;99.90;;;;;;5086711;28;20609;-47
2021/06/19 09:23:43;;;;;;;4.13;2.25;;;25.70;99.90;;;;;;5069019;28;20036;-48
2021/06/19 09:26:15;;;;;;;3.28;2.38;;;25.70;99.90;;;;;;5068498;28;20027;-48
2021/06/19 09:29:02;;;;;;;4.95;2.25;;;25.70;99.90;;;;;;5070898;28;20115;-47
2021/06/19 09:31:37;;;;;;;3.70;2.58;;;25.70;99.90;;;;;;5067831;28;20056;-51
2021/06/19 09:34:21;;;;;;;4.95;2.50;;;25.70;99.90;;;;;;5068524;28;20544;-48
2021/06/19 09:36:49;;;;;;;3.47;2.53;;;25.70;99.90;;;;;;5068724;28;20028;-49
2021/06/19 09:39:24;;;;;;;5.88;2.30;;;25.70;99.90;;;;;;5069039;28;20035;-48
2021/06/19 09:41:58;;;;;;;5.32;2.95;;;25.80;99.90;;;;;;5066836;28;20189;-46
2021/06/19 09:44:45;;;;;;;5.10;2.60;;;25.80;99.90;;;;;;5068233;28;20029;-49
2021/06/19 09:47:13;;;;;;;6.22;3.22;;;25.90;99.90;;;;;;5067834;28;20595;-47
2021/06/19 09:49:42;;;;;;;2.55;2.05;;;25.90;99.90;;;;;;5077279;28;20109;-46
2021/06/19 09:52:09;;;;;;;2.95;2.10;;;25.90;99.90;;;;;;5082297;28;20099;-46
2021/06/19 09:54:45;;;;;;;8.20;2.63;;;25.80;99.90;;;;;;5069204;28;20031;-50
2021/06/19 09:57:14;;;;;;;4.18;1.95;;;25.80;99.90;;;;;;5069239;28;20119;-48
2021/06/19 09:59:42;;;;;;;4.05;2.33;;;25.90;99.90;;;;;;5068344;28;20017;-46
2021/06/19 10:02:30;;;;;;;5.53;2.67;;;26.00;99.90;;;;;;5071246;28;20039;-46
2021/06/19 10:04:57;;;;;;;8.32;3.03;;;26.00;99.90;;;;;;5068509;28;20031;-48
2021/06/19 10:07:27;;;;;;;4.10;2.45;;;26.10;99.90;;;;;;5070516;28;20152;-50
2021/06/19 10:09:56;;;;;;;8.80;2.50;;;26.20;99.90;;;;;;5068992;28;20091;-47
2021/06/19 10:12:28;;;;;;;4.30;2.30;;;26.20;99.90;;;;;;5085416;28;20032;-48
2021/06/19 10:15:07;;;;;;;2.20;2.00;;;26.30;99.90;;;;;;5068975;28;20035;-50
2021/06/19 10:17:36;;;;;;;1.77;1.42;;;26.50;99.90;;;;;;5069746;28;20024;-47
2021/06/19 10:20:04;;;;;;;4.50;1.90;;;26.80;99.90;;;;;;5067805;28;20488;-47
2021/06/19 10:22:31;;;;;;;4.53;2.40;;;26.70;99.90;;;;;;5067405;28;20032;-46
2021/06/19 10:25:08;;;;;;;5.93;2.85;;;26.50;99.90;;;;;;5068835;28;20021;-47
2021/06/19 10:27:43;;;;;;;7.35;2.92;;;26.50;99.90;;;;;;5068311;28;20570;-48
2021/06/19 10:30:11;;;;;;;6.07;2.40;;;26.30;99.90;;;;;;5068277;28;20020;-50
2021/06/19 10:32:51;;;;;;;6.88;2.22;;;26.20;99.90;;;;;;5068097;28;20459;-49
2021/06/19 10:35:19;;;;;;;2.40;1.70;;;26.30;99.90;;;;;;5068879;28;20020;-46
2021/06/19 10:37:46;;;;;;;2.78;2.00;;;26.40;99.90;;;;;;5088162;28;20109;-50
2021/06/19 10:40:27;;;;;;;5.03;2.35;;;26.50;99.90;;;;;;5088206;28;20026;-51
2021/06/19 10:43:15;;;;;;;5.20;2.83;;;26.40;99.90;;;;;;5088920;28;20132;-48
2021/06/19 10:45:43;;;;;;;8.73;4.38;;;26.40;99.90;;;;;;5088095;28;20012;-46
2021/06/19 10:48:12;;;;;;;9.00;5.00;;;26.40;99.90;;;;;;5088253;28;20031;-49
2021/06/19 10:50:40;;;;;;;7.90;4.93;;;26.40;99.90;;;;;;5078591;28;20051;-48
2021/06/19 10:53:05;;;;;;;6.93;3.47;;;26.40;99.90;;;;;;5087801;28;20024;-47
2021/06/19 10:55:34;;;;;;;6.75;3.38;;;26.70;99.90;;;;;;5084359;28;20031;-47
2021/06/19 10:58:04;;;;;;;9.50;3.28;;;26.90;99.90;;;;;;5067896;28;20027;-49
2021/06/19 11:00:34;;;;;;;7.78;3.53;;;27.00;99.90;;;;;;5067523;28;20024;-47
2021/06/19 11:03:03;;;;;;;6.25;3.20;;;27.00;99.90;;;;;;5067670;28;20764;-48
2021/06/19 11:05:41;;;;;;;8.48;4.57;;;27.10;99.90;;;;;;5066815;28;20020;-48
2021/06/19 11:08:11;;;;;;;7.78;5.25;;;27.30;99.90;;;;;;5066655;28;20036;-48
2021/06/19 11:10:48;;;;;;;9.38;5.65;;;27.40;99.90;;;;;;5075377;28;20020;-48
2021/06/19 11:13:29;;;;;;;9.40;5.88;;;27.50;99.90;;;;;;5073011;28;20032;-49
2021/06/19 11:16:00;;;;;;;12.65;5.90;;;27.60;99.90;;;;;;5068278;28;20032;-46
2021/06/19 11:18:48;;;;;;;10.65;5.05;;;27.60;99.90;;;;;;5077444;28;20093;-48
2021/06/19 11:21:32;;;;;;;11.32;3.85;;;27.50;99.90;;;;;;5078377;28;20031;-46
2021/06/19 11:24:06;;;;;;;7.53;3.88;;;27.50;99.90;;;;;;5081178;28;20036;-49
2021/06/19 11:26:55;;;;;;;12.50;4.03;;;27.50;99.90;;;;;;5078270;28;20497;-49
2021/06/19 11:29:36;;;;;;;11.85;3.58;;;27.30;99.90;;;;;;5065453;28;20131;-50
2021/06/19 11:32:22;;;;;;;19.02;4.38;;;27.30;99.90;;;;;;5064961;28;20024;-47
2021/06/19 11:34:49;;;;;;;11.05;3.80;;;27.50;99.90;;;;;;5065751;28;20043;-48
2021/06/19 11:37:16;;;;;;;7.95;3.42;;;27.60;99.90;;;;;;5080709;28;20517;-48
2021/06/19 11:39:43;;;;;;;11.07;3.50;;;27.70;99.90;;;;;;5073862;28;20537;-48
2021/06/19 11:42:09;;;;;;;8.55;3.50;;;27.90;99.90;;;;;;5077195;28;20039;-49
2021/06/19 11:44:43;;;;;;;8.93;4.00;;;28.00;99.90;;;;;;5080649;28;20036;-46
2021/06/19 11:47:09;;;;;;;9.60;4.55;;;28.00;99.90;;;;;;5076484;28;20028;-48
2021/06/19 11:49:41;;;;;;;9.38;4.10;;;28.00;99.90;;;;;;5072041;28;20086;-49
2021/06/19 11:52:10;;;;;;;7.80;3.33;;;28.00;99.90;;;;;;5072572;28;20037;-49
2021/06/19 11:54:41;;;;;;;7.40;3.38;;;28.20;99.90;;;;;;5076621;28;20029;-48
2021/06/19 11:57:08;;;;;;;7.53;3.30;;;28.10;99.90;;;;;;5077846;28;20118;-46
2021/06/19 11:59:34;;;;;;;7.85;3.63;;;28.10;99.90;;;;;;5081155;28;20493;-48
2021/06/19 12:02:00;;;;;;;7.47;3.38;;;28.20;99.90;;;;;;5073510;28;20035;-49
2021/06/19 12:04:31;;;;;;;11.98;2.88;;;28.20;99.90;;;;;;5080059;28;20486;-45
2021/06/19 12:07:01;;;;;;;9.70;3.25;;;28.50;99.90;;;;;;5069444;28;20028;-49
2021/06/19 12:09:34;;;;;;;4.85;2.97;;;28.60;99.90;;;;;;5067700;28;20104;-50
2021/06/19 12:12:05;;;;;;;8.10;3.42;;;28.80;99.90;;;;;;5068127;28;20023;-50
2021/06/19 12:14:33;;;;;;;7.70;3.60;;;29.00;99.90;;;;;;5076991;28;20064;-48
2021/06/19 12:17:26;;;;;;;7.80;2.88;;;29.00;99.90;;;;;;5086085;28;20051;-49
2021/06/19 12:19:51;;;;;;;9.05;2.95;;;29.20;99.90;;;;;;5078969;28;20506;-46
2021/06/19 12:22:18;;;;;;;4.82;2.42;;;29.40;99.90;;;;;;5074355;28;20039;-47
2021/06/19 12:24:47;;;;;;;3.40;2.33;;;29.70;99.90;;;;;;5095975;28;20023;-50
2021/06/19 12:27:24;;;;;;;5.65;2.40;;;29.70;99.90;;;;;;5076262;28;20387;-48
2021/06/19 12:29:54;;;;;;;6.22;2.78;;;29.90;99.90;;;;;;5064522;28;20020;-50
2021/06/19 12:32:34;;;;;;;3.67;2.25;;;30.10;99.90;;;;;;5066766;28;20048;-46
2021/06/19 12:35:10;;;;;;;10.63;2.88;;;29.90;99.90;;;;;;5085147;28;20035;-46
2021/06/19 12:37:39;;;;;;;5.30;2.65;;;29.80;99.90;;;;;;5066831;28;20020;-49
2021/06/19 12:40:11;;;;;;;4.13;2.35;;;29.90;99.90;;;;;;5072045;28;20028;-49
2021/06/19 12:42:37;;;;;;;3.50;2.55;;;29.90;99.90;;;;;;5079578;28;20525;-48
2021/06/19 12:45:16;;;;;;;3.65;2.08;;;29.80;99.90;;;;;;5071414;28;20056;-50
2021/06/19 12:47:44;;;;;;;8.57;2.90;;;30.00;99.90;;;;;;5074694;28;20033;-49
2021/06/19 12:50:21;;;;;;;6.55;2.88;;;29.90;99.90;;;;;;5064425;28;20024;-49
2021/06/19 12:53:08;;;;;;;4.60;2.67;;;30.10;99.90;;;;;;5064557;28;20085;-50
2021/06/19 12:55:38;;;;;;;3.90;2.42;;;30.00;99.90;;;;;;5065203;28;20029;-51
2021/06/19 12:58:06;;;;;;;8.05;2.70;;;30.20;99.90;;;;;;5083790;28;20042;-51